Latest Weather Observations for Wynyard

IDT60801

Issued at 2:01 pm EST Sunday 2 August 2015 (issued every 30 minutes, with the page automatically refreshed every 10 minutes)

About weather observations | Map of weather stations | Latest weather observations for TAS | Other Formats
Station Details ID: 091107 Name: WYNYARD AIRPORT Lat: -41.00 Lon: 145.73 Height: 12.0 m
Data from the previous 72 hours. | See also: Recent months at Wynyard
Date/Time
EST
Temp
°C
App
Temp
°C
Dew
Point
Rel
Hum
%
Delta-T
°C
Wind Press
QNH
hPa
Press
MSL
hPa
Rain
since 9 am
mm
Dir
 
Spd
km/h
Gust
km/h
Spd
kts
Gust
kts
02/02:00pm 6.8 -0.5 4.6 86 1.0 WSW 32 46 17 25 1000.3 1000.3 3.8
02/01:33pm 6.3 -4.1 4.1 86 0.9 SW 48 67 26 36 1000.0 1000.0 3.8
02/01:30pm 6.3 -4.1 4.0 85 1.0 SW 48 67 26 36 1000.1 1000.1 3.8
02/01:16pm 6.8 -0.4 6.1 95 0.3 WSW 33 52 18 28 999.9 999.9 3.8
02/01:10pm 7.0 -0.9 6.1 94 0.4 WSW 37 48 20 26 1000.0 1000.0 3.8
02/01:00pm 7.0 -2.2 6.3 95 0.3 WSW 44 70 24 38 999.8 999.8 3.8
02/12:58pm 7.1 -2.5 6.2 94 0.4 W 46 70 25 38 999.9 999.9 3.8
02/12:45pm 7.8 -4.5 6.9 94 0.4 W 61 95 33 51 999.1 999.1 3.4
02/12:36pm 9.5 0.7 7.9 90 0.8 WNW 44 80 24 43 998.7 998.7 2.4
02/12:30pm 10.5 2.6 7.7 83 1.3 WNW 39 67 21 36 998.4 998.4 1.6
02/12:00pm 10.6 3.0 9.2 91 0.7 WNW 39 63 21 34 999.6 999.6 1.6
02/11:40am 9.6 2.7 7.4 86 1.0 WNW 33 54 18 29 1000.4 1000.4 1.4
02/11:31am 8.8 1.6 7.7 93 0.5 WNW 35 54 19 29 1000.8 1000.8 1.4
02/11:30am 8.8 2.1 8.0 95 0.4 WNW 33 50 18 27 1000.9 1000.9 1.4
02/11:11am 9.5 1.6 7.9 90 0.8 WNW 39 57 21 31 1001.5 1001.5 0.8
02/11:02am 10.3 3.0 7.2 81 1.5 WNW 35 57 19 31 1001.7 1001.7 0.6
02/11:00am 10.6 3.8 7.7 82 1.4 WNW 33 44 18 24 1001.8 1001.8 0.6
02/10:46am 10.7 3.6 8.1 84 1.3 WNW 35 50 19 27 1002.0 1002.0 0.6
02/10:41am 10.1 3.9 7.7 85 1.2 WNW 30 50 16 27 1002.1 1002.2 0.6
02/10:31am 9.7 4.4 8.3 91 0.7 WNW 26 39 14 21 1002.6 1002.7 0.6
02/10:30am 9.7 4.3 8.0 89 0.8 WNW 26 39 14 21 1002.6 1002.7 0.6
02/10:00am 9.9 4.7 7.3 84 1.2 WNW 24 32 13 17 1003.1 1003.2 0.2
02/09:30am 9.4 4.6 7.2 86 1.0 WNW 22 33 12 18 1003.8 1003.9 0.2
02/09:00am 8.9 4.5 7.2 89 0.8 WNW 20 28 11 15 1004.5 1004.6 1.4
02/08:30am 7.5 2.9 6.4 93 0.5 W 20 28 11 15 1004.8 1004.9 1.4
02/08:00am 6.5 3.6 6.4 99 0.0 SW 11 15 6 8 1005.1 1005.2 1.4
02/07:30am 5.8 3.1 5.7 99 0.0 W 9 11 5 6 1005.4 1005.5 1.4
02/07:00am 6.2 2.5 6.1 99 0.0 WSW 15 17 8 9 1005.7 1005.8 1.4
02/06:30am 6.7 3.1 6.6 99 0.0 W 15 22 8 12 1005.9 1006.0 1.4
02/06:00am 6.7 2.2 6.3 97 0.2 W 19 26 10 14 1006.3 1006.4 1.2
02/05:30am 6.7 2.5 5.8 94 0.4 WNW 17 24 9 13 1006.4 1006.5 1.2
02/05:00am 6.3 2.0 5.1 92 0.5 WNW 17 20 9 11 1006.7 1006.8 1.0
02/04:30am 6.3 1.7 5.6 95 0.3 WNW 19 22 10 12 1007.1 1007.2 1.0
02/04:00am 6.8 1.7 6.1 95 0.3 WNW 22 28 12 15 1007.5 1007.6 1.0
02/03:30am 6.8 1.6 5.7 93 0.5 W 22 32 12 17 1007.9 1008.0 0.8
02/03:00am 6.0 1.8 5.6 97 0.2 W 17 22 9 12 1008.4 1008.5 0.8
02/02:30am 4.5 1.1 3.8 95 0.3 W 11 13 6 7 1009.1 1009.2 0.8
02/02:00am 5.2 1.9 4.5 95 0.3 WNW 11 15 6 8 1009.1 1009.2 0.8
02/01:30am 5.1 0.2 5.0 99 0.0 W 20 32 11 17 1009.4 1009.5 0.8
02/01:00am 2.4 0.4 2.3 99 0.0 SSE 2 11 1 6 1009.8 1009.9 0.8
02/12:30am 2.2 -0.6 2.1 99 0.0 SSE 6 9 3 5 1010.1 1010.2 0.8
02/12:00am 3.1 1.2 3.0 99 0.0 ENE 2 7 1 4 1010.3 1010.4 0.8
 
Date/Time
EST
Temp
°C
App
Temp
°C
Dew
Point
Rel
Hum
%
Delta-T
°C
Wind Press
QNH
hPa
Press
MSL
hPa
Rain
since 9 am
mm
Dir
 
Spd
km/h
Gust
km/h
Spd
kts
Gust
kts
01/11:30pm 3.3 1.8 3.2 99 0.0 CALM 0 0 0 0 1010.8 1010.9 0.8
01/11:00pm 4.4 1.4 4.3 99 0.0 SSW 9 13 5 7 1011.0 1011.1 0.8
01/10:30pm 2.4 0.0 2.3 99 0.0 SW 4 7 2 4 1011.4 1011.5 0.8
01/10:00pm 2.9 0.2 2.8 99 0.0 WSW 6 7 3 4 1011.6 1011.7 0.8
01/09:30pm 4.0 1.3 3.9 99 0.0 SSW 7 9 4 5 1011.4 1011.5 0.8
01/09:00pm 4.0 1.0 3.9 99 0.0 WSW 9 15 5 8 1011.3 1011.4 0.8
01/08:30pm 2.8 -0.1 2.7 99 0.0 WSW 7 11 4 6 1011.7 1011.8 0.6
01/08:00pm 2.9 -0.3 2.8 99 0.0 SW 9 13 5 7 1011.6 1011.7 0.6
01/07:30pm 2.3 -0.7 2.2 99 0.0 SSW 7 9 4 5 1011.6 1011.7 0.6
01/07:00pm 3.2 0.4 3.1 99 0.0 SW 7 9 4 5 1011.3 1011.4 0.6
01/06:30pm 3.4 0.6 3.3 99 0.0 SSW 7 15 4 8 1011.2 1011.3 0.6
01/06:00pm 4.8 2.5 4.7 99 0.0 S 6 7 3 4 1010.8 1010.9 0.6
01/05:30pm 5.8 4.2 4.4 91 0.6 WNW 2 9 1 5 1010.4 1010.5 0.6
01/05:00pm 6.4 3.5 4.6 88 0.8 W 9 15 5 8 1010.1 1010.2 0.6
01/04:30pm 6.8 3.6 5.0 88 0.8 WSW 11 15 6 8 1009.7 1009.8 0.6
01/04:00pm 8.0 2.4 5.5 84 1.1 WSW 24 35 13 19 1009.8 1009.9 0.6
01/03:30pm 8.7 3.7 4.5 75 1.9 WSW 20 30 11 16 1009.1 1009.2 0.6
01/03:00pm 8.2 0.6 3.9 74 1.9 WSW 33 43 18 23 1008.8 1008.9 0.6
01/02:37pm 7.6 -0.5 3.5 75 1.7 WSW 35 67 19 36 1009.0 1009.1 0.6
01/02:35pm 8.2 0.5 2.4 67 2.4 W 32 67 17 36 1008.7 1008.8 0.6
01/02:34pm 9.4 2.6 2.9 64 2.8 W 28 46 15 25 1008.6 1008.7 0.6
01/02:30pm 10.4 4.2 4.3 66 2.7 W 26 37 14 20 1008.3 1008.4 0.6
01/02:00pm 9.8 4.3 4.2 68 2.5 W 22 30 12 16 1008.1 1008.2 0.6
01/01:30pm 8.8 3.4 6.2 84 1.2 WSW 24 32 13 17 1008.6 1008.7 0.6
01/01:07pm 7.6 2.6 6.4 92 0.5 WSW 22 32 12 17 1008.7 1008.8 0.6
01/01:00pm 7.2 1.0 6.3 94 0.4 WSW 28 41 15 22 1008.8 1008.9 0.6
01/12:48pm 6.9 -2.6 4.7 86 1.0 WSW 44 69 24 37 1008.9 1009.0 0.2
01/12:47pm 7.3 -2.2 4.8 84 1.1 W 44 69 24 37 1008.8 1008.9 0.2
01/12:41pm 9.1 1.0 3.5 68 2.4 W 35 61 19 33 1008.3 1008.4 0.0
01/12:30pm 9.9 3.4 4.7 70 2.3 W 28 37 15 20 1008.1 1008.2 0.0
01/12:23pm 10.1 3.4 5.7 74 2.0 WSW 30 48 16 26 1008.1 1008.2 0.0
01/12:00pm 9.6 3.0 4.4 70 2.3 W 28 35 15 19 1008.0 1008.1 0.0
01/11:30am 9.3 1.8 3.7 68 2.4 WSW 32 43 17 23 1008.1 1008.2 0.0
01/11:00am 8.6 1.1 3.4 70 2.2 W 32 52 17 28 1008.1 1008.2 0.0
01/10:59am 8.4 1.2 2.8 68 2.4 W 30 52 16 28 1008.1 1008.2 0.0
01/10:30am 7.9 -0.3 4.5 79 1.5 W 37 50 20 27 1007.9 1008.0 0.0
01/10:23am 7.8 1.1 3.7 75 1.8 WSW 28 50 15 27 1007.9 1008.0 0.0
01/10:00am 8.1 2.3 4.3 77 1.7 WSW 24 32 13 17 1007.1 1007.2 0.0
01/09:30am 7.2 1.1 4.7 84 1.1 WSW 26 33 14 18 1006.6 1006.7 0.0
01/09:05am 6.4 -0.2 4.4 87 0.9 W 28 46 15 25 1005.9 1006.0 0.0
01/09:00am 7.2 1.9 5.2 87 0.9 W 22 30 12 16 1006.1 1006.2 12.8
01/08:30am 6.6 1.3 4.8 88 0.8 W 22 30 12 16 1005.2 1005.3 12.8
01/08:01am 6.3 -0.2 4.5 88 0.8 WSW 28 46 15 25 1004.4 1004.5 12.8
01/08:00am 6.4 -0.5 4.6 88 0.8 WSW 30 46 16 25 1004.4 1004.5 12.8
01/07:30am 7.2 0.9 5.5 89 0.8 W 28 48 15 26 1003.5 1003.6 12.8
01/07:28am 7.3 0.9 5.4 88 0.8 W 28 48 15 26 1003.3 1003.4 12.8
01/07:00am 7.3 2.9 6.7 96 0.3 W 19 35 10 19 1003.0 1003.1 12.8
01/06:30am 7.3 3.4 7.0 98 0.1 WNW 17 22 9 12 1002.2 1002.3 12.8
01/06:00am 7.3 2.4 6.7 96 0.3 W 22 28 12 15 1002.2 1002.3 12.4
01/05:30am 7.8 0.7 6.6 92 0.6 WSW 33 57 18 31 1001.7 1001.8 11.6
01/05:25am 8.0 2.1 7.4 96 0.3 W 28 50 15 27 1001.5 1001.6 11.6
01/05:10am 8.2 2.8 7.8 97 0.2 WSW 26 37 14 20 1001.1 1001.2 11.4
01/05:08am 8.2 2.4 7.8 97 0.2 WSW 28 37 15 20 1001.1 1001.2 11.4
01/05:00am 8.3 1.5 7.9 97 0.2 WSW 33 48 18 26 1001.1 1001.2 11.4
01/04:50am 8.7 2.1 8.6 99 0.0 W 33 52 18 28 1001.2 1001.3 11.2
01/04:34am 9.7 3.0 9.6 99 0.0 NW 35 48 19 26 1000.6 1000.7 9.2
01/04:30am 9.7 2.2 9.6 99 0.0 NW 39 59 21 32 1000.6 1000.7 9.0
01/04:23am 9.7 2.2 9.6 99 0.0 NW 39 57 21 31 1000.7 1000.8 8.8
01/04:00am 9.5 3.1 9.4 99 0.0 NW 33 56 18 30 1001.3 1001.4 7.6
01/03:47am 9.5 2.0 9.4 99 0.0 NW 39 63 21 34 1001.7 1001.8 6.6
01/03:36am 9.5 2.7 9.4 99 0.0 NW 35 56 19 30 1001.8 1001.9 5.8
01/03:30am 9.7 3.2 9.1 96 0.3 NW 33 48 18 26 1002.0 1002.1 5.6
01/03:22am 9.7 3.8 8.9 95 0.4 NW 30 43 16 23 1001.9 1002.0 5.4
01/03:00am 9.4 3.4 8.8 96 0.3 NW 30 44 16 24 1002.8 1002.9 4.6
01/02:30am 9.4 3.0 8.5 94 0.4 NW 32 46 17 25 1003.7 1003.8 4.2
01/02:00am 9.3 4.0 8.5 95 0.4 NW 26 37 14 20 1004.5 1004.6 3.2
01/01:30am 9.2 2.0 7.6 90 0.8 NW 35 50 19 27 1005.2 1005.3 2.0
01/01:00am 9.8 2.7 6.2 78 1.7 NW 33 54 18 29 1005.6 1005.7 0.4
01/12:51am 10.4 3.2 5.8 73 2.1 NNW 33 54 18 29 1005.6 1005.7 0.4
01/12:30am 10.4 3.6 5.2 70 2.4 NNW 30 44 16 24 1006.2 1006.3 0.4
01/12:05am 10.5 3.4 6.3 75 2.0 NW 33 54 18 29 1007.3 1007.4 0.4
01/12:00am 10.4 3.4 6.2 75 2.0 NW 32 46 17 25 1007.5 1007.6 0.4
 
Date/Time
EST
Temp
°C
App
Temp
°C
Dew
Point
Rel
Hum
%
Delta-T
°C
Wind Press
QNH
hPa
Press
MSL
hPa
Rain
since 9 am
mm
Dir
 
Spd
km/h
Gust
km/h
Spd
kts
Gust
kts
31/11:42pm 10.2 3.9 5.8 74 2.0 NW 28 46 15 25 1008.1 1008.2 0.4
31/11:30pm 10.1 3.8 5.9 75 1.9 NW 28 43 15 23 1008.5 1008.6 0.4
31/11:00pm 9.9 3.4 4.7 70 2.3 NW 28 39 15 21 1008.8 1008.9 0.4
31/10:30pm 9.7 3.7 5.1 73 2.1 NW 26 37 14 20 1010.0 1010.1 0.4
31/10:00pm 9.6 2.4 4.8 72 2.2 NW 32 46 17 25 1010.0 1010.1 0.4
31/09:30pm 9.7 2.4 5.3 74 2.0 NW 33 46 18 25 1010.3 1010.4 0.4
31/09:00pm 9.7 3.4 5.5 75 1.9 NW 28 41 15 22 1011.0 1011.1 0.4
31/08:40pm 9.6 3.3 5.8 77 1.7 NW 28 46 15 25 1011.1 1011.2 0.4
31/08:30pm 9.5 4.0 5.7 77 1.7 NW 24 39 13 21 1011.1 1011.2 0.4
31/08:00pm 8.1 5.9 8.0 99 0.0 W 9 17 5 9 1011.6 1011.7 0.4
31/07:30pm 8.1 5.9 8.0 99 0.0 W 9 13 5 7 1011.9 1012.0 0.2
31/07:00pm 8.1 4.7 7.7 97 0.2 WNW 15 20 8 11 1012.3 1012.4 0.2
31/06:30pm 7.2 5.2 7.1 99 0.0 W 7 11 4 6 1012.3 1012.4 0.2
31/06:00pm 6.9 4.0 6.3 96 0.3 W 11 15 6 8 1012.7 1012.8 0.2
31/05:30pm 7.0 4.1 6.3 95 0.3 W 11 13 6 7 1012.6 1012.7 0.2
31/05:00pm 8.3 5.1 6.9 91 0.7 WNW 13 17 7 9 1012.8 1012.9 0.2
31/04:30pm 8.5 4.3 7.4 93 0.5 WNW 19 28 10 15 1012.5 1012.6 0.2
31/04:00pm 9.1 3.8 6.7 85 1.1 NW 24 32 13 17 1013.2 1013.3 0.0
31/03:30pm 9.9 5.6 6.8 81 1.5 NW 19 28 10 15 1013.3 1013.4 0.0
31/03:00pm 10.1 5.5 6.4 78 1.7 WNW 20 30 11 16 1013.6 1013.7 0.0
31/02:30pm 11.1 6.6 6.8 75 2.0 NW 20 28 11 15 1014.0 1014.1 0.0
31/02:00pm 11.0 5.8 5.5 69 2.5 WNW 22 35 12 19 1014.1 1014.2 0.0
31/01:30pm 10.6 5.2 6.2 74 2.0 WNW 24 35 13 19 1014.6 1014.7 0.0
31/01:00pm 9.9 6.4 7.0 82 1.4 WNW 15 20 8 11 1015.2 1015.3 0.0
31/12:30pm 10.1 5.4 5.9 75 1.9 W 20 35 11 19 1015.7 1015.8 0.0
31/12:00pm 11.1 6.5 6.5 73 2.2 WNW 20 30 11 16 1015.9 1016.0 0.0
31/11:30am 10.5 5.8 5.9 73 2.1 WNW 20 26 11 14 1016.5 1016.6 0.0
31/11:00am 10.0 5.4 5.6 74 2.0 WNW 19 26 10 14 1016.7 1016.8 0.0
31/10:30am 8.9 5.3 5.1 77 1.7 WNW 13 19 7 10 1017.1 1017.1 0.0
31/10:00am 7.9 4.4 5.5 85 1.1 W 13 17 7 9 1016.8 1016.9 0.0
31/09:30am 5.8 2.9 4.9 94 0.4 W 9 13 5 7 1016.8 1016.9 0.0
31/09:00am 4.5 1.6 4.4 99 0.0 WNW 9 11 5 6 1016.5 1016.6 9.8
31/08:30am 2.5 -0.8 2.4 99 0.0 SSW 9 11 5 6 1016.4 1016.5 9.8
31/08:00am 1.6 -2.6 1.5 99 0.0 WNW 13 15 7 8 1016.5 1016.6 9.8
31/07:30am 0.0 -4.1 -0.1 99 0.0 WSW 11 13 6 7 1016.1 1016.2 9.8
31/07:00am 0.6 -3.4 0.5 99 0.0 WNW 11 13 6 7 1015.6 1015.7 9.8
31/06:30am 1.2 -3.5 1.1 99 0.0 W 15 17 8 9 1015.7 1015.8 9.8
31/06:00am 0.7 -2.9 0.6 99 0.0 WSW 9 13 5 7 1015.5 1015.6 9.8
31/05:30am 1.5 -1.6 1.4 99 0.0 WNW 7 9 4 5 1015.2 1015.3 9.8
31/05:00am 2.1 -0.9 2.0 99 0.0 SW 7 7 4 4 1015.0 1015.1 9.8
31/04:30am 3.3 -0.3 2.7 96 0.2 NW 11 13 6 7 1014.7 1014.8 9.8
31/04:00am 3.5 -0.2 2.6 94 0.4 NW 11 15 6 8 1014.8 1014.9 9.8
31/03:30am 3.4 0.5 2.7 95 0.3 WNW 7 11 4 6 1014.4 1014.5 9.8
31/03:00am 3.7 0.4 2.5 92 0.5 WSW 9 13 5 7 1014.0 1014.1 9.8
31/02:30am 3.9 -0.1 2.6 91 0.5 WSW 13 17 7 9 1013.9 1014.0 9.8
31/02:00am 4.6 0.3 3.1 90 0.6 WSW 15 20 8 11 1013.6 1013.7 9.8
31/01:30am 5.1 -0.2 3.0 86 0.9 W 20 28 11 15 1013.2 1013.3 9.8
31/01:00am 4.9 -0.3 2.6 85 0.9 WSW 19 24 10 13 1012.7 1012.8 9.8
31/12:30am 5.4 0.2 3.3 86 0.9 WSW 20 28 11 15 1012.2 1012.3 9.8
31/12:09am 6.1 -0.6 3.8 85 1.0 WSW 28 48 15 26 1011.8 1011.9 9.8
31/12:00am 5.5 0.5 3.8 89 0.7 W 19 28 10 15 1011.9 1012.0 9.8
 
Date/Time
EST
Temp
°C
App
Temp
°C
Dew
Point
Rel
Hum
%
Delta-T
°C
Wind Press
QNH
hPa
Press
MSL
hPa
Rain
since 9 am
mm
Dir
 
Spd
km/h
Gust
km/h
Spd
kts
Gust
kts
30/11:30pm 6.1 0.6 4.1 87 0.9 W 22 28 12 15 1011.3 1011.4 9.8
30/11:00pm 6.5 -0.6 3.8 83 1.1 WSW 30 43 16 23 1010.4 1010.5 9.8
30/10:51pm 6.8 0.1 3.8 81 1.3 WSW 28 52 15 28 1010.4 1010.5 9.8
30/10:30pm 6.7 0.9 4.2 84 1.1 WSW 24 33 13 18 1010.0 1010.1 9.8
30/10:00pm 7.4 -0.1 4.5 82 1.3 WSW 33 52 18 28 1009.0 1009.1 9.8
30/09:54pm 7.4 0.5 4.7 83 1.2 WSW 30 52 16 28 1008.7 1008.8 9.8
30/09:30pm 7.3 0.5 5.3 87 0.9 WSW 30 44 16 24 1007.8 1007.9 9.8
30/09:00pm 7.3 2.0 6.6 95 0.3 WSW 24 35 13 19 1007.0 1007.1 9.8
30/08:30pm 7.9 3.2 7.8 99 0.0 W 22 28 12 15 1006.5 1006.6 9.4
30/08:00pm 7.8 3.5 7.2 96 0.3 W 19 24 10 13 1005.6 1005.7 9.0
30/07:30pm 7.9 3.0 7.0 94 0.4 W 22 28 12 15 1005.1 1005.2 9.0
30/07:29pm 7.9 3.0 7.0 94 0.4 W 22 30 12 16 1005.1 1005.2 9.0
30/07:10pm 8.0 0.3 6.9 93 0.5 SW 37 56 20 30 1005.2 1005.3 9.0
30/07:00pm 8.4 -0.3 7.5 94 0.4 WSW 43 61 23 33 1005.1 1005.2 8.8
30/06:59pm 8.5 -0.4 7.6 94 0.4 WSW 44 67 24 36 1005.1 1005.2 8.8
30/06:56pm 8.7 -1.3 7.8 94 0.4 WSW 50 70 27 38 1004.8 1004.9 8.8
30/06:47pm 9.3 1.0 9.2 99 0.0 WNW 43 70 23 38 1003.7 1003.8 8.6
30/06:46pm 9.5 1.6 9.4 99 0.0 WNW 41 56 22 30 1003.7 1003.8 8.6
30/06:30pm 9.7 1.9 9.6 99 0.0 NW 41 59 22 32 1003.9 1004.0 8.0
30/06:00pm 9.4 1.5 9.3 99 0.0 NW 41 59 22 32 1004.3 1004.4 7.0
30/05:45pm 9.4 2.2 9.3 99 0.0 NW 37 56 20 30 1004.5 1004.6 6.2
30/05:37pm 9.3 2.1 9.2 99 0.0 WNW 37 52 20 28 1004.6 1004.7 6.0
30/05:30pm 9.3 1.7 9.2 99 0.0 NW 39 57 21 31 1004.7 1004.8 5.8
30/05:01pm 10.4 3.8 8.5 88 0.9 NW 33 54 18 29 1004.9 1005.0 4.0
30/05:00pm 10.4 3.8 8.5 88 0.9 NW 33 46 18 25 1005.0 1005.1 4.0
30/04:30pm 10.2 4.6 8.6 90 0.8 NW 28 43 15 23 1005.6 1005.7 3.8
30/04:13pm 10.2 4.5 8.5 89 0.8 NW 28 50 15 27 1005.9 1006.0 3.6
30/04:00pm 10.2 5.3 8.6 90 0.8 NW 24 35 13 19 1006.2 1006.3 3.4
30/03:36pm 9.8 3.7 8.2 90 0.8 NW 30 43 16 23 1007.0 1007.1 2.8
30/03:30pm 9.8 3.1 8.1 89 0.8 NW 33 54 18 29 1007.0 1007.1 2.6
30/03:00pm 9.8 3.3 8.2 90 0.8 NW 32 57 17 31 1007.7 1007.8 1.8
30/02:57pm 9.9 3.1 7.8 87 1.0 NW 33 57 18 31 1007.7 1007.8 1.4
30/02:32pm 10.3 4.5 7.9 85 1.2 NW 28 50 15 27 1008.3 1008.4 1.0
30/02:30pm 10.1 4.3 7.9 86 1.1 NW 28 44 15 24 1008.4 1008.5 1.0
30/02:03pm 10.5 3.5 7.0 79 1.7 NW 33 54 18 29 1008.8 1008.9 0.6

Other Formats:

Comma delimited format used in spreadsheet applications
http://www.bom.gov.au/fwo/IDT60801/IDT60801.95957.axf

JavaScript Object Notation format (JSON) in row-major order
http://www.bom.gov.au/fwo/IDT60801/IDT60801.95957.json